sensor_id;sensor_type;location;lat;lon;timestamp;pressure;altitude;pressure_sealevel;temperature;humidity
46846;BME280;33947;46.804;134.252;2023-02-14T00:02:32;101440.16;;;-13.69;57.43
46846;BME280;33947;46.804;134.252;2023-02-14T00:05:37;101537.59;;;-12.83;56.65
46846;BME280;33947;46.804;134.252;2023-02-14T00:08:42;101551.78;;;-12.97;56.95
46846;BME280;33947;46.804;134.252;2023-02-14T00:11:49;101553.72;;;-13.04;57.52
46846;BME280;33947;46.804;134.252;2023-02-14T00:14:54;101549.47;;;-12.52;57.38
46846;BME280;33947;46.804;134.252;2023-02-14T00:18:17;101558.84;;;-12.84;56.27
46846;BME280;33947;46.804;134.252;2023-02-14T00:21:21;101572.25;;;-12.97;57.08
46846;BME280;33947;46.804;134.252;2023-02-14T00:24:26;101523.47;;;-12.26;56.25
46846;BME280;33947;46.804;134.252;2023-02-14T00:27:33;101568.59;;;-11.73;55.32
46846;BME280;33947;46.804;134.252;2023-02-14T00:30:38;101485.59;;;-12.30;55.01
46846;BME280;33947;46.804;134.252;2023-02-14T00:33:42;101523.53;;;-11.81;55.87
46846;BME280;33947;46.804;134.252;2023-02-14T00:36:47;101559.47;;;-10.80;55.76
46846;BME280;33947;46.804;134.252;2023-02-14T00:39:52;101532.53;;;-10.51;55.05
46846;BME280;33947;46.804;134.252;2023-02-14T00:42:56;101528.69;;;-9.36;53.03
46846;BME280;33947;46.804;134.252;2023-02-14T00:46:00;101547.81;;;-8.81;51.79
46846;BME280;33947;46.804;134.252;2023-02-14T00:49:05;101553.38;;;-7.82;50.52
46846;BME280;33947;46.804;134.252;2023-02-14T00:52:09;101533.66;;;-8.09;51.92
46846;BME280;33947;46.804;134.252;2023-02-14T00:55:14;101576.19;;;-7.20;49.58
46846;BME280;33947;46.804;134.252;2023-02-14T00:58:18;101532.53;;;-7.02;48.97
46846;BME280;33947;46.804;134.252;2023-02-14T01:01:22;101558.66;;;-6.23;46.30
46846;BME280;33947;46.804;134.252;2023-02-14T01:04:27;101584.13;;;-6.60;47.44
46846;BME280;33947;46.804;134.252;2023-02-14T01:07:31;101558.84;;;-5.89;46.57
46846;BME280;33947;46.804;134.252;2023-02-14T01:10:36;101561.31;;;-5.75;45.86
46846;BME280;33947;46.804;134.252;2023-02-14T01:13:41;101595.56;;;-6.41;45.52
46846;BME280;33947;46.804;134.252;2023-02-14T01:16:46;101538.53;;;-6.88;45.25
46846;BME280;33947;46.804;134.252;2023-02-14T01:19:52;101512.72;;;-5.96;45.47
46846;BME280;33947;46.804;134.252;2023-02-14T01:22:58;101554.53;;;-6.05;43.29
46846;BME280;33947;46.804;134.252;2023-02-14T01:26:04;101552.22;;;-6.30;44.85
46846;BME280;33947;46.804;134.252;2023-02-14T01:29:09;101551.66;;;-4.82;42.64
46846;BME280;33947;46.804;134.252;2023-02-14T01:32:15;101548.81;;;-4.86;41.53
46846;BME280;33947;46.804;134.252;2023-02-14T01:35:31;101613.78;;;-3.63;42.24
46846;BME280;33947;46.804;134.252;2023-02-14T01:38:56;101544.22;;;-6.20;40.19
46846;BME280;33947;46.804;134.252;2023-02-14T01:42:13;101591.84;;;-5.38;41.47
46846;BME280;33947;46.804;134.252;2023-02-14T01:46:13;101554.00;;;-5.03;40.94
46846;BME280;33947;46.804;134.252;2023-02-14T01:49:46;101594.94;;;-5.29;40.80
46846;BME280;33947;46.804;134.252;2023-02-14T01:53:00;101594.69;;;-5.65;42.74
46846;BME280;33947;46.804;134.252;2023-02-14T01:56:13;101609.47;;;-5.47;42.67
46846;BME280;33947;46.804;134.252;2023-02-14T01:59:27;101607.44;;;-5.05;42.17
46846;BME280;33947;46.804;134.252;2023-02-14T02:02:40;101656.88;;;-4.36;40.29
46846;BME280;33947;46.804;134.252;2023-02-14T02:05:57;101637.59;;;-4.90;40.07
46846;BME280;33947;46.804;134.252;2023-02-14T02:12:52;101492.09;;;-5.63;40.14
46846;BME280;33947;46.804;134.252;2023-02-14T02:16:10;101660.47;;;-5.46;39.66
46846;BME280;33947;46.804;134.252;2023-02-14T02:19:32;101653.41;;;-5.17;40.93
46846;BME280;33947;46.804;134.252;2023-02-14T02:30:49;101671.06;;;-6.75;41.27
46846;BME280;33947;46.804;134.252;2023-02-14T02:37:41;101636.72;;;-6.44;42.95
46846;BME280;33947;46.804;134.252;2023-02-14T02:44:26;101662.13;;;-6.08;40.49
46846;BME280;33947;46.804;134.252;2023-02-14T02:47:47;101680.81;;;-6.85;42.55
46846;BME280;33947;46.804;134.252;2023-02-14T02:51:11;101680.56;;;-7.16;43.07
46846;BME280;33947;46.804;134.252;2023-02-14T02:54:47;101672.00;;;-6.88;43.90
46846;BME280;33947;46.804;134.252;2023-02-14T02:57:56;101667.34;;;-6.65;43.27
46846;BME280;33947;46.804;134.252;2023-02-14T03:01:17;101681.56;;;-7.01;42.93
46846;BME280;33947;46.804;134.252;2023-02-14T03:04:25;101669.16;;;-7.06;41.84
46846;BME280;33947;46.804;134.252;2023-02-14T03:07:49;101658.75;;;-7.21;44.00
46846;BME280;33947;46.804;134.252;2023-02-14T03:10:53;101615.75;;;-8.15;45.18
46846;BME280;33947;46.804;134.252;2023-02-14T03:14:13;101651.09;;;-7.33;42.85
46846;BME280;33947;46.804;134.252;2023-02-14T03:17:39;101697.81;;;-7.02;44.45
46846;BME280;33947;46.804;134.252;2023-02-14T03:21:20;101695.50;;;-7.25;42.04
46846;BME280;33947;46.804;134.252;2023-02-14T03:24:57;101676.44;;;-8.46;45.21
46846;BME280;33947;46.804;134.252;2023-02-14T03:31:37;101670.88;;;-8.13;45.06
46846;BME280;33947;46.804;134.252;2023-02-14T03:35:03;101657.72;;;-8.94;44.15
46846;BME280;33947;46.804;134.252;2023-02-14T03:42:39;101571.03;;;-9.68;46.61
46846;BME280;33947;46.804;134.252;2023-02-14T03:46:52;101700.00;;;-8.53;46.13
46846;BME280;33947;46.804;134.252;2023-02-14T03:50:13;101708.09;;;-8.97;46.57
46846;BME280;33947;46.804;134.252;2023-02-14T03:53:25;101713.06;;;-9.24;47.64
46846;BME280;33947;46.804;134.252;2023-02-14T03:56:44;101697.50;;;-9.38;47.54
46846;BME280;33947;46.804;134.252;2023-02-14T03:59:50;101668.44;;;-9.61;47.25
46846;BME280;33947;46.804;134.252;2023-02-14T04:03:01;101693.94;;;-9.64;48.99
46846;BME280;33947;46.804;134.252;2023-02-14T04:06:10;101689.66;;;-9.75;49.06
46846;BME280;33947;46.804;134.252;2023-02-14T04:09:14;101692.91;;;-9.78;48.94
46846;BME280;33947;46.804;134.252;2023-02-14T04:12:19;101649.75;;;-9.70;47.80
46846;BME280;33947;46.804;134.252;2023-02-14T04:15:39;101695.50;;;-9.42;48.52
46846;BME280;33947;46.804;134.252;2023-02-14T04:18:46;101697.81;;;-9.69;49.14
46846;BME280;33947;46.804;134.252;2023-02-14T04:22:09;101705.44;;;-9.82;50.02
46846;BME280;33947;46.804;134.252;2023-02-14T04:25:13;101706.06;;;-9.85;49.69
46846;BME280;33947;46.804;134.252;2023-02-14T04:28:18;101705.53;;;-9.69;49.24
46846;BME280;33947;46.804;134.252;2023-02-14T04:31:23;101678.53;;;-8.91;47.68
46846;BME280;33947;46.804;134.252;2023-02-14T04:34:28;101709.19;;;-8.06;45.60
46846;BME280;33947;46.804;134.252;2023-02-14T04:37:32;101709.16;;;-8.70;45.88
46846;BME280;33947;46.804;134.252;2023-02-14T04:40:37;101707.47;;;-9.42;48.81
46846;BME280;33947;46.804;134.252;2023-02-14T04:43:44;101685.88;;;-9.56;49.44
46846;BME280;33947;46.804;134.252;2023-02-14T04:46:49;101707.78;;;-9.74;49.44
46846;BME280;33947;46.804;134.252;2023-02-14T04:49:54;101706.88;;;-9.98;52.83
46846;BME280;33947;46.804;134.252;2023-02-14T04:52:58;101710.78;;;-10.03;54.86
46846;BME280;33947;46.804;134.252;2023-02-14T04:56:02;101700.88;;;-9.75;54.01
46846;BME280;33947;46.804;134.252;2023-02-14T04:59:07;101693.34;;;-9.83;52.36
46846;BME280;33947;46.804;134.252;2023-02-14T05:02:14;101717.16;;;-9.86;50.79
46846;BME280;33947;46.804;134.252;2023-02-14T05:05:18;101713.78;;;-9.85;50.53
46846;BME280;33947;46.804;134.252;2023-02-14T05:08:22;101744.38;;;-9.66;49.44
46846;BME280;33947;46.804;134.252;2023-02-14T05:11:27;101754.28;;;-10.17;51.60
46846;BME280;33947;46.804;134.252;2023-02-14T05:14:31;101740.06;;;-10.01;50.36
46846;BME280;33947;46.804;134.252;2023-02-14T05:17:38;101750.31;;;-9.31;49.87
46846;BME280;33947;46.804;134.252;2023-02-14T05:20:44;101723.22;;;-9.74;48.92
46846;BME280;33947;46.804;134.252;2023-02-14T05:23:48;101750.34;;;-10.23;49.40
46846;BME280;33947;46.804;134.252;2023-02-14T05:26:53;101758.03;;;-10.01;49.37
46846;BME280;33947;46.804;134.252;2023-02-14T05:29:57;101708.06;;;-10.05;49.32
46846;BME280;33947;46.804;134.252;2023-02-14T05:33:01;101700.19;;;-11.19;50.79
46846;BME280;33947;46.804;134.252;2023-02-14T05:36:05;101773.56;;;-10.56;51.51
46846;BME280;33947;46.804;134.252;2023-02-14T05:39:10;101771.31;;;-10.41;50.65
46846;BME280;33947;46.804;134.252;2023-02-14T05:42:17;101801.69;;;-10.35;50.63
46846;BME280;33947;46.804;134.252;2023-02-14T05:45:21;101800.97;;;-10.00;48.94
46846;BME280;33947;46.804;134.252;2023-02-14T05:48:26;101794.28;;;-10.20;49.60
46846;BME280;33947;46.804;134.252;2023-02-14T05:51:30;101776.16;;;-10.22;49.66
46846;BME280;33947;46.804;134.252;2023-02-14T05:54:34;101794.44;;;-10.41;50.20
46846;BME280;33947;46.804;134.252;2023-02-14T05:57:39;101811.25;;;-10.00;48.91
46846;BME280;33947;46.804;134.252;2023-02-14T06:00:44;101827.75;;;-10.53;50.54
46846;BME280;33947;46.804;134.252;2023-02-14T06:03:48;101837.22;;;-10.41;50.04
46846;BME280;33947;46.804;134.252;2023-02-14T06:06:52;101843.00;;;-10.44;49.83
46846;BME280;33947;46.804;134.252;2023-02-14T06:09:56;101835.97;;;-10.35;48.74
46846;BME280;33947;46.804;134.252;2023-02-14T06:13:01;101858.03;;;-10.49;50.46
46846;BME280;33947;46.804;134.252;2023-02-14T06:16:05;101859.44;;;-10.85;50.22
46846;BME280;33947;46.804;134.252;2023-02-14T06:19:10;101848.50;;;-11.15;51.32
46846;BME280;33947;46.804;134.252;2023-02-14T06:22:17;101864.91;;;-11.23;50.74
46846;BME280;33947;46.804;134.252;2023-02-14T06:25:22;101806.69;;;-11.55;51.05
46846;BME280;33947;46.804;134.252;2023-02-14T06:28:27;101866.94;;;-11.19;50.97
46846;BME280;33947;46.804;134.252;2023-02-14T06:31:31;101870.72;;;-11.36;51.23
46846;BME280;33947;46.804;134.252;2023-02-14T06:34:36;101880.06;;;-11.47;50.54
46846;BME280;33947;46.804;134.252;2023-02-14T06:37:42;101797.50;;;-11.74;50.18
46846;BME280;33947;46.804;134.252;2023-02-14T06:40:47;101887.19;;;-11.01;50.15
46846;BME280;33947;46.804;134.252;2023-02-14T06:43:52;101878.91;;;-11.30;50.04
46846;BME280;33947;46.804;134.252;2023-02-14T06:47:00;101749.50;;;-12.08;50.03
46846;BME280;33947;46.804;134.252;2023-02-14T06:50:12;101905.81;;;-11.14;50.44
46846;BME280;33947;46.804;134.252;2023-02-14T06:53:17;101902.34;;;-11.56;50.97
46846;BME280;33947;46.804;134.252;2023-02-14T06:56:21;101897.50;;;-11.43;50.51
46846;BME280;33947;46.804;134.252;2023-02-14T06:59:26;101898.47;;;-11.82;51.41
46846;BME280;33947;46.804;134.252;2023-02-14T07:02:30;101888.53;;;-11.48;50.85
46846;BME280;33947;46.804;134.252;2023-02-14T07:05:35;101926.59;;;-11.53;51.36
46846;BME280;33947;46.804;134.252;2023-02-14T07:08:39;101906.47;;;-11.27;50.83
46846;BME280;33947;46.804;134.252;2023-02-14T07:11:45;101918.41;;;-11.28;50.17
46846;BME280;33947;46.804;134.252;2023-02-14T07:14:49;101891.59;;;-11.42;50.12
46846;BME280;33947;46.804;134.252;2023-02-14T07:17:53;101914.53;;;-11.43;51.35
46846;BME280;33947;46.804;134.252;2023-02-14T07:20:57;101933.16;;;-11.36;51.45
46846;BME280;33947;46.804;134.252;2023-02-14T07:24:02;101910.69;;;-11.69;51.77
46846;BME280;33947;46.804;134.252;2023-02-14T07:27:09;101944.28;;;-11.56;51.99
46846;BME280;33947;46.804;134.252;2023-02-14T07:30:13;101933.19;;;-11.75;51.97
46846;BME280;33947;46.804;134.252;2023-02-14T07:33:18;101939.06;;;-11.97;52.61
46846;BME280;33947;46.804;134.252;2023-02-14T07:36:22;101922.28;;;-12.04;52.87
46846;BME280;33947;46.804;134.252;2023-02-14T07:39:27;101941.38;;;-12.00;52.86
46846;BME280;33947;46.804;134.252;2023-02-14T07:42:31;101942.88;;;-12.13;53.12
46846;BME280;33947;46.804;134.252;2023-02-14T07:45:35;101973.94;;;-12.29;53.20
46846;BME280;33947;46.804;134.252;2023-02-14T07:48:43;101750.53;;;-13.93;53.27
46846;BME280;33947;46.804;134.252;2023-02-14T07:52:11;101975.56;;;-12.59;53.52
46846;BME280;33947;46.804;134.252;2023-02-14T07:55:15;101948.72;;;-12.92;54.57
46846;BME280;33947;46.804;134.252;2023-02-14T07:58:19;101994.44;;;-12.86;55.04
46846;BME280;33947;46.804;134.252;2023-02-14T08:01:24;102000.72;;;-12.83;54.41
46846;BME280;33947;46.804;134.252;2023-02-14T08:04:28;101993.81;;;-12.84;53.53
46846;BME280;33947;46.804;134.252;2023-02-14T08:07:35;102005.53;;;-12.58;53.47
46846;BME280;33947;46.804;134.252;2023-02-14T08:10:39;101989.09;;;-12.98;53.65
46846;BME280;33947;46.804;134.252;2023-02-14T08:13:43;101942.25;;;-13.35;54.35
46846;BME280;33947;46.804;134.252;2023-02-14T08:16:49;102022.88;;;-12.83;53.88
46846;BME280;33947;46.804;134.252;2023-02-14T08:19:54;102021.72;;;-12.96;54.03
46846;BME280;33947;46.804;134.252;2023-02-14T08:22:58;102031.44;;;-13.11;53.89
46846;BME280;33947;46.804;134.252;2023-02-14T08:26:02;102024.34;;;-13.60;55.37
46846;BME280;33947;46.804;134.252;2023-02-14T08:29:07;102009.31;;;-13.66;55.03
46846;BME280;33947;46.804;134.252;2023-02-14T08:32:11;102044.16;;;-13.30;54.11
46846;BME280;33947;46.804;134.252;2023-02-14T08:35:16;102038.34;;;-13.65;54.44
46846;BME280;33947;46.804;134.252;2023-02-14T08:38:20;102053.53;;;-13.39;54.28
46846;BME280;33947;46.804;134.252;2023-02-14T08:41:25;102040.31;;;-13.63;54.07
46846;BME280;33947;46.804;134.252;2023-02-14T08:44:29;102044.38;;;-13.74;54.17
46846;BME280;33947;46.804;134.252;2023-02-14T08:47:33;102077.13;;;-13.61;54.22
46846;BME280;33947;46.804;134.252;2023-02-14T08:50:43;102077.69;;;-13.55;54.08
46846;BME280;33947;46.804;134.252;2023-02-14T08:53:49;102084.28;;;-13.48;53.57
46846;BME280;33947;46.804;134.252;2023-02-14T08:56:54;102079.22;;;-13.57;53.07
46846;BME280;33947;46.804;134.252;2023-02-14T08:59:59;102083.88;;;-13.61;52.63
46846;BME280;33947;46.804;134.252;2023-02-14T09:03:05;102081.38;;;-13.88;52.62
46846;BME280;33947;46.804;134.252;2023-02-14T09:06:15;102100.63;;;-14.18;53.59
46846;BME280;33947;46.804;134.252;2023-02-14T09:09:19;102093.56;;;-14.38;53.59
46846;BME280;33947;46.804;134.252;2023-02-14T09:12:24;102104.34;;;-14.58;54.28
46846;BME280;33947;46.804;134.252;2023-02-14T09:15:29;102095.34;;;-14.72;54.56
46846;BME280;33947;46.804;134.252;2023-02-14T09:18:35;102123.69;;;-14.69;54.63
46846;BME280;33947;46.804;134.252;2023-02-14T09:21:41;102140.50;;;-14.71;54.45
46846;BME280;33947;46.804;134.252;2023-02-14T09:24:46;102133.25;;;-14.84;54.08
46846;BME280;33947;46.804;134.252;2023-02-14T09:27:50;102118.13;;;-15.25;53.74
46846;BME280;33947;46.804;134.252;2023-02-14T09:30:55;102152.81;;;-15.09;54.33
46846;BME280;33947;46.804;134.252;2023-02-14T09:34:02;102152.97;;;-15.42;54.94
46846;BME280;33947;46.804;134.252;2023-02-14T09:37:10;102122.28;;;-15.84;55.91
46846;BME280;33947;46.804;134.252;2023-02-14T09:40:32;102146.81;;;-15.93;56.55
46846;BME280;33947;46.804;134.252;2023-02-14T09:50:47;102148.06;;;-16.06;57.29
46846;BME280;33947;46.804;134.252;2023-02-14T09:53:59;102178.63;;;-16.06;57.36
46846;BME280;33947;46.804;134.252;2023-02-14T10:00:56;102181.22;;;-16.13;57.13
46846;BME280;33947;46.804;134.252;2023-02-14T10:10:28;102191.41;;;-15.97;56.28
46846;BME280;33947;46.804;134.252;2023-02-14T10:13:39;102203.16;;;-15.90;55.28
46846;BME280;33947;46.804;134.252;2023-02-14T10:17:04;102198.72;;;-16.16;55.96
46846;BME280;33947;46.804;134.252;2023-02-14T10:20:21;102128.78;;;-16.68;55.87
46846;BME280;33947;46.804;134.252;2023-02-14T10:23:34;102211.59;;;-16.31;56.32
46846;BME280;33947;46.804;134.252;2023-02-14T10:26:41;102181.28;;;-16.52;56.37
46846;BME280;33947;46.804;134.252;2023-02-14T10:29:47;102197.63;;;-16.34;56.00
46846;BME280;33947;46.804;134.252;2023-02-14T10:33:16;102229.50;;;-16.22;55.38
46846;BME280;33947;46.804;134.252;2023-02-14T10:40:03;102240.31;;;-16.71;56.67
46846;BME280;33947;46.804;134.252;2023-02-14T10:43:27;102235.34;;;-16.85;56.58
46846;BME280;33947;46.804;134.252;2023-02-14T10:46:52;102240.78;;;-16.82;56.78
46846;BME280;33947;46.804;134.252;2023-02-14T10:50:26;102245.06;;;-16.74;56.15
46846;BME280;33947;46.804;134.252;2023-02-14T10:54:08;102205.78;;;-17.08;56.04
46846;BME280;33947;46.804;134.252;2023-02-14T10:57:35;101936.25;;;-18.74;56.22
46846;BME280;33947;46.804;134.252;2023-02-14T11:01:09;102252.53;;;-16.76;55.88
46846;BME280;33947;46.804;134.252;2023-02-14T11:04:16;102234.06;;;-16.82;55.67
46846;BME280;33947;46.804;134.252;2023-02-14T11:07:22;102251.06;;;-16.74;55.26
46846;BME280;33947;46.804;134.252;2023-02-14T11:10:31;102266.97;;;-16.67;54.87
46846;BME280;33947;46.804;134.252;2023-02-14T11:13:39;102261.13;;;-16.82;54.23
46846;BME280;33947;46.804;134.252;2023-02-14T11:16:43;102279.63;;;-17.07;54.50
46846;BME280;33947;46.804;134.252;2023-02-14T11:20:01;102278.84;;;-17.22;54.95
46846;BME280;33947;46.804;134.252;2023-02-14T11:23:20;102278.22;;;-17.42;55.69
46846;BME280;33947;46.804;134.252;2023-02-14T11:26:29;102254.75;;;-17.70;56.04
46846;BME280;33947;46.804;134.252;2023-02-14T11:32:48;102274.06;;;-17.42;56.24
46846;BME280;33947;46.804;134.252;2023-02-14T11:35:58;102275.59;;;-17.21;55.46
46846;BME280;33947;46.804;134.252;2023-02-14T11:39:25;102286.97;;;-16.94;54.44
46846;BME280;33947;46.804;134.252;2023-02-14T11:42:44;102279.72;;;-17.52;54.37
46846;BME280;33947;46.804;134.252;2023-02-14T11:46:16;102289.41;;;-17.71;54.89
46846;BME280;33947;46.804;134.252;2023-02-14T11:49:33;102262.38;;;-17.70;55.09
46846;BME280;33947;46.804;134.252;2023-02-14T11:52:48;102277.38;;;-17.57;54.53
46846;BME280;33947;46.804;134.252;2023-02-14T11:55:54;102287.47;;;-17.43;54.71
46846;BME280;33947;46.804;134.252;2023-02-14T11:59:02;102292.63;;;-17.20;53.81
46846;BME280;33947;46.804;134.252;2023-02-14T12:02:31;102281.03;;;-17.25;53.73
46846;BME280;33947;46.804;134.252;2023-02-14T12:05:46;102287.34;;;-17.52;54.26
46846;BME280;33947;46.804;134.252;2023-02-14T12:09:10;102289.16;;;-17.51;54.11
46846;BME280;33947;46.804;134.252;2023-02-14T12:12:24;102214.22;;;-18.30;54.54
46846;BME280;33947;46.804;134.252;2023-02-14T12:15:30;102298.50;;;-17.73;55.23
46846;BME280;33947;46.804;134.252;2023-02-14T12:18:57;102269.88;;;-17.79;55.07
46846;BME280;33947;46.804;134.252;2023-02-14T12:22:04;102273.72;;;-17.52;54.45
46846;BME280;33947;46.804;134.252;2023-02-14T12:25:23;102296.97;;;-17.56;54.87
46846;BME280;33947;46.804;134.252;2023-02-14T12:28:44;102297.75;;;-17.72;54.44
46846;BME280;33947;46.804;134.252;2023-02-14T12:31:52;102299.63;;;-17.93;55.64
46846;BME280;33947;46.804;134.252;2023-02-14T12:39:11;102294.28;;;-17.58;54.71
46846;BME280;33947;46.804;134.252;2023-02-14T12:49:22;102300.06;;;-17.66;54.78
46846;BME280;33947;46.804;134.252;2023-02-14T12:56:15;102284.06;;;-17.51;54.78
46846;BME280;33947;46.804;134.252;2023-02-14T13:09:46;102241.91;;;-17.72;55.72
46846;BME280;33947;46.804;134.252;2023-02-14T13:13:05;102272.75;;;-17.38;55.47
46846;BME280;33947;46.804;134.252;2023-02-14T13:16:29;102281.22;;;-17.23;55.14
46846;BME280;33947;46.804;134.252;2023-02-14T13:22:53;102282.97;;;-16.92;53.91
46846;BME280;33947;46.804;134.252;2023-02-14T13:26:05;102286.31;;;-17.00;53.62
46846;BME280;33947;46.804;134.252;2023-02-14T13:29:15;102267.66;;;-17.00;53.65
46846;BME280;33947;46.804;134.252;2023-02-14T13:32:23;102271.91;;;-17.15;54.25
46846;BME280;33947;46.804;134.252;2023-02-14T13:35:29;102286.97;;;-17.17;55.10
46846;BME280;33947;46.804;134.252;2023-02-14T13:38:54;102288.97;;;-16.91;53.76
46846;BME280;33947;46.804;134.252;2023-02-14T13:42:00;102246.06;;;-17.35;54.12
46846;BME280;33947;46.804;134.252;2023-02-14T13:45:04;102284.97;;;-16.89;54.21
46846;BME280;33947;46.804;134.252;2023-02-14T13:51:18;102289.75;;;-17.23;54.78
46846;BME280;33947;46.804;134.252;2023-02-14T13:54:27;102286.63;;;-17.51;55.30
46846;BME280;33947;46.804;134.252;2023-02-14T13:57:34;102286.91;;;-17.40;55.56
46846;BME280;33947;46.804;134.252;2023-02-14T14:00:49;102292.44;;;-17.21;55.08
46846;BME280;33947;46.804;134.252;2023-02-14T14:04:00;102279.59;;;-17.23;54.47
46846;BME280;33947;46.804;134.252;2023-02-14T14:07:17;102278.47;;;-17.25;54.84
46846;BME280;33947;46.804;134.252;2023-02-14T14:11:00;102280.16;;;-17.70;55.63
46846;BME280;33947;46.804;134.252;2023-02-14T14:17:24;102269.28;;;-17.77;56.00
46846;BME280;33947;46.804;134.252;2023-02-14T14:20:38;102291.38;;;-17.61;55.78
46846;BME280;33947;46.804;134.252;2023-02-14T14:23:44;102288.81;;;-17.54;55.05
46846;BME280;33947;46.804;134.252;2023-02-14T14:26:58;102289.59;;;-17.77;54.66
46846;BME280;33947;46.804;134.252;2023-02-14T14:30:18;102281.09;;;-18.51;55.73
46846;BME280;33947;46.804;134.252;2023-02-14T14:36:32;102297.56;;;-18.62;57.27
46846;BME280;33947;46.804;134.252;2023-02-14T14:39:37;102207.41;;;-18.96;56.82
46846;BME280;33947;46.804;134.252;2023-02-14T14:42:42;102299.00;;;-18.79;57.03
46846;BME280;33947;46.804;134.252;2023-02-14T14:45:48;102256.34;;;-19.68;59.97
46846;BME280;33947;46.804;134.252;2023-02-14T14:48:56;102284.50;;;-19.16;59.60
46846;BME280;33947;46.804;134.252;2023-02-14T14:52:01;102279.09;;;-18.90;58.75
46846;BME280;33947;46.804;134.252;2023-02-14T14:55:13;102287.78;;;-18.73;56.56
46846;BME280;33947;46.804;134.252;2023-02-14T14:58:40;102290.16;;;-19.11;57.22
46846;BME280;33947;46.804;134.252;2023-02-14T15:01:45;102287.25;;;-19.00;57.66
46846;BME280;33947;46.804;134.252;2023-02-14T15:04:50;102282.31;;;-19.27;56.99
46846;BME280;33947;46.804;134.252;2023-02-14T15:07:55;102280.66;;;-19.34;57.84
46846;BME280;33947;46.804;134.252;2023-02-14T15:11:25;102283.06;;;-19.21;58.30
46846;BME280;33947;46.804;134.252;2023-02-14T15:14:50;102291.03;;;-19.11;58.28
46846;BME280;33947;46.804;134.252;2023-02-14T15:17:58;102262.59;;;-19.23;56.84
46846;BME280;33947;46.804;134.252;2023-02-14T15:21:04;102221.16;;;-19.38;55.96
46846;BME280;33947;46.804;134.252;2023-02-14T15:24:12;102276.09;;;-19.51;56.22
46846;BME280;33947;46.804;134.252;2023-02-14T15:27:23;102278.28;;;-19.47;55.52
46846;BME280;33947;46.804;134.252;2023-02-14T15:30:33;102269.56;;;-20.05;55.76
46846;BME280;33947;46.804;134.252;2023-02-14T15:33:40;102262.97;;;-20.25;56.07
46846;BME280;33947;46.804;134.252;2023-02-14T15:36:45;102283.72;;;-19.93;56.47
46846;BME280;33947;46.804;134.252;2023-02-14T15:39:54;102254.50;;;-20.46;55.94
46846;BME280;33947;46.804;134.252;2023-02-14T15:43:13;102275.31;;;-20.41;56.75
46846;BME280;33947;46.804;134.252;2023-02-14T15:46:18;102284.13;;;-20.45;57.01
46846;BME280;33947;46.804;134.252;2023-02-14T15:49:35;102284.53;;;-20.62;57.11
46846;BME280;33947;46.804;134.252;2023-02-14T15:52:45;102291.94;;;-20.63;56.41
46846;BME280;33947;46.804;134.252;2023-02-14T15:55:50;102296.28;;;-21.03;56.93
46846;BME280;33947;46.804;134.252;2023-02-14T15:59:15;102295.50;;;-21.29;57.45
46846;BME280;33947;46.804;134.252;2023-02-14T16:02:34;102281.81;;;-21.44;56.40
46846;BME280;33947;46.804;134.252;2023-02-14T16:05:45;102265.09;;;-21.57;56.35
46846;BME280;33947;46.804;134.252;2023-02-14T16:08:54;102294.31;;;-21.38;56.79
46846;BME280;33947;46.804;134.252;2023-02-14T16:15:33;102302.09;;;-21.37;57.85
46846;BME280;33947;46.804;134.252;2023-02-14T16:18:47;102321.09;;;-21.59;58.10
46846;BME280;33947;46.804;134.252;2023-02-14T16:21:55;102298.09;;;-21.55;58.16
46846;BME280;33947;46.804;134.252;2023-02-14T16:25:00;102279.78;;;-21.67;57.52
46846;BME280;33947;46.804;134.252;2023-02-14T16:28:04;102321.91;;;-21.53;57.38
46846;BME280;33947;46.804;134.252;2023-02-14T16:31:14;102315.75;;;-21.55;57.27
46846;BME280;33947;46.804;134.252;2023-02-14T16:34:20;102314.56;;;-21.31;56.16
46846;BME280;33947;46.804;134.252;2023-02-14T16:37:29;102318.66;;;-21.72;56.66
46846;BME280;33947;46.804;134.252;2023-02-14T16:40:36;102318.34;;;-21.68;55.84
46846;BME280;33947;46.804;134.252;2023-02-14T16:43:40;102326.31;;;-21.78;56.52
46846;BME280;33947;46.804;134.252;2023-02-14T16:46:45;102328.13;;;-21.90;56.31
46846;BME280;33947;46.804;134.252;2023-02-14T16:49:49;102315.50;;;-21.90;56.61
46846;BME280;33947;46.804;134.252;2023-02-14T16:52:55;102316.13;;;-21.98;56.01
46846;BME280;33947;46.804;134.252;2023-02-14T16:56:01;102330.03;;;-21.81;54.75
46846;BME280;33947;46.804;134.252;2023-02-14T16:59:05;102343.34;;;-22.21;55.71
46846;BME280;33947;46.804;134.252;2023-02-14T17:02:10;102320.88;;;-21.94;56.15
46846;BME280;33947;46.804;134.252;2023-02-14T17:05:16;102339.63;;;-22.31;55.85
46846;BME280;33947;46.804;134.252;2023-02-14T17:08:20;102342.25;;;-22.23;55.56
46846;BME280;33947;46.804;134.252;2023-02-14T17:11:26;102346.03;;;-22.59;55.41
46846;BME280;33947;46.804;134.252;2023-02-14T17:14:35;102342.91;;;-22.50;55.82
46846;BME280;33947;46.804;134.252;2023-02-14T17:17:42;102344.31;;;-22.52;56.07
46846;BME280;33947;46.804;134.252;2023-02-14T17:20:48;102331.03;;;-22.51;55.21
46846;BME280;33947;46.804;134.252;2023-02-14T17:23:52;102331.59;;;-22.73;55.30
46846;BME280;33947;46.804;134.252;2023-02-14T17:26:56;102333.09;;;-22.67;56.15
46846;BME280;33947;46.804;134.252;2023-02-14T17:30:01;102343.28;;;-22.60;56.10
46846;BME280;33947;46.804;134.252;2023-02-14T17:33:05;102339.59;;;-22.57;55.88